KFFO/FFO METAR and TAF weather

Enter ICAO airport designator
Station Type Date Time Source
KFFO METAR 2021/01/20 18:56 UTC NOAA

KFFO 201856Z 23011KT 9SM BKN030 00/M08 A3018 RMK AO2A SLP231 T00031082


Station Type Date Time Source
KFFO Decoded METAR 2021/01/20 18:56 UTC NOAA

Dayton / Wright-Patterson Air Force Base, OH, United States (KFFO) 39-50N 084-03W 251M
Jan 20, 2021 - 01:56 PM EST / 2021.01.20 1856 UTC
Wind: from the SW (230 degrees) at 13 MPH (11 KT):0
Visibility: 9 mile(s):0
Sky conditions: mostly cloudy
Temperature: 32.5 F (0.3 C)
Windchill: 23 F (-5 C):1
Dew Point: 17.2 F (-8.2 C)
Relative Humidity: 52%
Pressure (altimeter): 30.18 in. Hg (1022 hPa)
ob: KFFO 201856Z 23011KT 9SM BKN030 00/M08 A3018 RMK AO2A SLP231 T00031082
cycle: 19

Station Type Date Time Source
KFFO TAF 2021/01/20 19:09 UTC NOAA

TAF KFFO 201900Z 2019/2201 26010G15KT 9999 SCT035 QNH3006INS
BECMG 2023/2024 23009KT 9999 FEW030 510052 QNH2995INS
BECMG 2104/2105 22009KT 9999 FEW080 WS020/23035KT QNH2979INS
BECMG 2111/2112 25012KT 9999 FEW015 510052 QNH2977INS
BECMG 2117/2118 26012G18KT 9999 SKC 510012 QNH2979INS TX06/2119Z TNM03/2102Z

Example: see airport list